< Typhoon 198825 1988 Season Typhoon 198827 >
Typhoon 198826 (ODESSA)
General InformationTrack Information on Google MapsDetailed Wind InformationList of All Images || Disaster Info.ResourceGoogle EarthGE AnimationAtom FeedGeoJSON
Detalied Best Track (Time Zone = UTC)
Year Month Day Hour Lat. Long. Pressure (hPa) Wind (kt) Class Image Chart
1988 10 8 12 16.0 152.0 1010 0 2 Image Chart
1988 10 8 18 16.5 150.0 1008 0 2 Image Chart
1988 10 9 00 17.5 147.5 1008 0 2 Image Chart
1988 10 9 06 18.5 146.0 1006 0 2 Image Chart
1988 10 9 12 19.5 144.0 1006 0 2 Image Chart
1988 10 9 18 20.0 142.5 1004 0 2 Image Chart
1988 10 10 00 20.0 141.0 1004 0 2 Image Chart
1988 10 10 06 20.0 140.0 1004 0 2 Image Chart
1988 10 10 12 19.5 138.5 1002 0 2 Image Chart
1988 10 10 18 19.0 137.0 1000 0 2 Image Chart
1988 10 11 00 18.8 135.7 998 35 3 Image Chart
1988 10 11 06 19.2 133.9 998 35 3 Image Chart
1988 10 11 12 18.8 132.2 996 40 3 Image Chart
1988 10 11 18 18.8 131.5 994 40 3 Image Chart
1988 10 12 00 18.9 130.7 994 40 3 Image Chart
1988 10 12 06 19.0 129.7 992 45 3 Image Chart
1988 10 12 12 19.6 129.3 992 45 3 Image Chart
1988 10 12 18 20.4 129.1 990 45 3 Image Chart
1988 10 13 00 21.2 128.7 985 45 3 Image Chart
1988 10 13 06 21.7 128.8 980 50 4 Image Chart
1988 10 13 12 22.0 129.0 975 60 4 Image Chart
1988 10 13 18 22.2 129.5 970 60 4 Image Chart
1988 10 14 00 22.6 129.9 970 60 4 Image Chart
1988 10 14 06 23.1 130.3 965 60 4 Image Chart
1988 10 14 12 23.5 130.7 965 60 4 Image Chart
1988 10 14 18 24.4 131.3 965 70 5 Image Chart
1988 10 15 00 24.8 131.8 965 70 5 Image Chart
1988 10 15 06 25.2 132.3 970 70 5 Image Chart
1988 10 15 12 25.4 132.9 970 70 5 Image Chart
1988 10 15 18 25.6 133.3 970 70 5 Image Chart
1988 10 16 00 25.8 133.5 975 70 5 Image Chart
1988 10 16 06 26.0 133.7 980 65 5 Image Chart
1988 10 16 12 26.1 133.4 985 50 4 Image Chart
1988 10 16 18 26.3 133.0 994 40 3 Image Chart
1988 10 17 00 26.6 132.2 1000 35 3 Image Chart
1988 10 17 06 27.0 132.0 1002 0 2 Image Chart
1988 10 17 12 27.0 132.0 1004 0 2 Image Chart
1988 10 17 18 27.5 132.0 1008 0 2 Image Chart
1988 10 18 00 28.0 133.0 1008 0 2 Image Chart
1988 10 18 06 28.5 134.0 1006 0 2 Image Chart
1988 10 18 12 29.0 135.5 1008 0 2 Image Chart
1988 10 18 18 29.0 137.0 1008 0 2 Image Chart
1988 10 19 00 29.0 140.0 1012 0 2 Image Chart
Japan Meteorological Agency Best Track Data | Correction Date : 1992-10-21
< Typhoon 198825 1988 Season Typhoon 198827 >

Help